Time;durP1;ratioP1;P1;durP2;ratioP2;P2;SDS_P1;SDS_P2;PMS_P1;PMS_P2;Temp;Humidity;BMP_temperature;BMP_pressure;BME280_temperature;BME280_humidity;BME280_pressure;Samples;Min_cycle;Max_cycle;Signal;HPM_P1;HPM_P2
2023/06/16 00:00:43;;;;;;;0.75;0.25;;;;;;;18.13;100.00;101890.19;10468131;28;20087;-80
2023/06/16 00:05:45;;;;;;;0.00;0.00;;;;;;;17.75;100.00;101888.88;10454075;28;20056;-80
2023/06/16 00:10:47;;;;;;;0.00;0.00;;;;;;;18.19;100.00;101886.75;10454847;28;20049;-79
2023/06/16 00:15:49;;;;;;;0.30;0.10;;;;;;;17.95;100.00;101885.66;10438195;28;20080;-80
2023/06/16 00:20:51;;;;;;;0.00;0.00;;;;;;;17.74;100.00;101887.13;10450530;28;20049;-80
2023/06/16 00:25:53;;;;;;;0.03;0.03;;;;;;;16.70;100.00;101884.78;10452164;28;20037;-80
2023/06/16 00:30:55;;;;;;;0.00;0.00;;;;;;;16.74;100.00;101881.34;10435467;28;20051;-80
2023/06/16 00:35:57;;;;;;;0.52;0.22;;;;;;;17.15;100.00;101884.59;10457312;28;20579;-80
2023/06/16 00:41:00;;;;;;;0.00;0.00;;;;;;;17.56;100.00;101886.88;10440779;28;20045;-80
2023/06/16 00:46:02;;;;;;;0.10;0.00;;;;;;;17.31;100.00;101880.47;10460948;28;20106;-80
2023/06/16 00:51:04;;;;;;;0.10;0.00;;;;;;;16.88;100.00;101878.97;10454481;28;20049;-80
2023/06/16 00:56:06;;;;;;;0.10;0.10;;;;;;;16.66;100.00;101880.34;10453308;28;20061;-80
2023/06/16 01:01:07;;;;;;;0.00;0.00;;;;;;;16.64;100.00;101876.88;10433856;28;20084;-80
2023/06/16 01:06:17;;;;;;;0.10;0.10;;;;;;;16.57;100.00;101872.41;10452319;28;20127;-79
2023/06/16 01:11:47;;;;;;;0.20;0.15;;;;;;;16.85;100.00;101872.84;10453973;28;20060;-79
2023/06/16 01:16:51;;;;;;;0.15;0.10;;;;;;;16.49;100.00;101873.13;10442037;28;20493;-80
2023/06/16 01:22:09;;;;;;;0.17;0.17;;;;;;;16.28;100.00;101872.75;10455383;28;20068;-80
2023/06/16 01:27:13;;;;;;;0.52;0.32;;;;;;;16.50;100.00;101874.88;10471032;28;20040;-79
2023/06/16 01:32:18;;;;;;;0.25;0.08;;;;;;;16.34;100.00;101878.09;10454606;28;20139;-80
2023/06/16 01:37:20;;;;;;;0.03;0.03;;;;;;;16.46;100.00;101870.50;10460433;28;20047;-80
2023/06/16 01:42:22;;;;;;;0.57;0.40;;;;;;;16.59;100.00;101873.31;10476166;28;20053;-80
2023/06/16 01:47:24;;;;;;;0.10;0.10;;;;;;;16.06;100.00;101867.19;10447925;28;20045;-79
2023/06/16 01:52:26;;;;;;;0.10;0.10;;;;;;;16.33;100.00;101855.53;10466984;28;20047;-79
2023/06/16 01:57:28;;;;;;;0.40;0.28;;;;;;;16.40;100.00;101854.78;10456791;28;20079;-79
2023/06/16 02:02:31;;;;;;;0.00;0.00;;;;;;;16.35;100.00;101848.63;10461402;28;20049;-79
2023/06/16 02:07:38;;;;;;;0.28;0.22;;;;;;;16.64;100.00;101861.25;10447706;28;20044;-79
2023/06/16 02:12:40;;;;;;;0.10;0.10;;;;;;;16.46;100.00;101860.09;10456939;28;20049;-80
2023/06/16 02:17:46;;;;;;;0.10;0.05;;;;;;;16.23;100.00;101864.91;10442021;28;20493;-80
2023/06/16 02:22:47;;;;;;;0.10;0.00;;;;;;;16.01;100.00;101863.63;10463545;28;20062;-80
2023/06/16 02:27:49;;;;;;;1.27;0.40;;;;;;;16.01;100.00;101861.03;10458811;28;20398;-80
2023/06/16 02:32:51;;;;;;;0.13;0.13;;;;;;;16.11;100.00;101870.75;10442197;28;20080;-80
2023/06/16 02:38:04;;;;;;;0.20;0.20;;;;;;;15.74;100.00;101870.03;10449247;28;20132;-80
2023/06/16 02:43:06;;;;;;;0.40;0.22;;;;;;;15.46;100.00;101869.44;10447015;28;20050;-79
2023/06/16 02:48:07;;;;;;;0.10;0.10;;;;;;;15.44;100.00;101865.94;10450806;28;20068;-79
2023/06/16 02:53:09;;;;;;;0.03;0.03;;;;;;;15.30;100.00;101872.56;10449045;28;20064;-79
2023/06/16 02:58:12;;;;;;;0.10;0.10;;;;;;;15.41;100.00;101871.06;10466448;28;20395;-79
2023/06/16 03:03:16;;;;;;;0.00;0.00;;;;;;;15.14;100.00;101867.03;10456132;28;20094;-79
2023/06/16 03:08:25;;;;;;;0.45;0.30;;;;;;;15.50;100.00;101871.28;10445431;28;20053;-79
2023/06/16 03:13:26;;;;;;;0.10;0.10;;;;;;;15.65;100.00;101872.44;10459785;28;20056;-79
2023/06/16 03:18:28;;;;;;;0.00;0.00;;;;;;;15.66;100.00;101871.59;10455755;28;20045;-80
2023/06/16 03:23:31;;;;;;;0.00;0.00;;;;;;;15.25;100.00;101864.69;10455065;28;20084;-79
2023/06/16 03:28:33;;;;;;;0.35;0.35;;;;;;;15.22;100.00;101862.91;10457526;28;20051;-79
2023/06/16 03:33:35;;;;;;;0.20;0.17;;;;;;;15.02;100.00;101867.63;10456402;28;20041;-79
2023/06/16 03:38:37;;;;;;;0.10;0.10;;;;;;;15.31;100.00;101870.00;10437345;28;20092;-80
2023/06/16 03:43:39;;;;;;;0.00;0.00;;;;;;;15.16;100.00;101867.91;10450405;28;20095;-79
2023/06/16 03:48:41;;;;;;;1.15;0.13;;;;;;;15.16;100.00;101874.84;10461581;28;20066;-80
2023/06/16 03:53:43;;;;;;;0.00;0.00;;;;;;;15.67;100.00;101868.16;10470189;28;20144;-79
2023/06/16 03:58:48;;;;;;;0.17;0.15;;;;;;;15.66;100.00;101866.41;10440003;28;20063;-80
2023/06/16 04:03:51;;;;;;;0.10;0.10;;;;;;;15.85;100.00;101872.88;10450505;28;20403;-79
2023/06/16 04:08:56;;;;;;;0.20;0.17;;;;;;;15.72;100.00;101869.09;10464389;28;20575;-79
2023/06/16 04:13:58;;;;;;;0.00;0.00;;;;;;;15.01;100.00;101870.16;10442448;28;20126;-80
2023/06/16 04:19:03;;;;;;;0.20;0.10;;;;;;;15.06;100.00;101884.16;10453225;28;20135;-79
2023/06/16 04:24:06;;;;;;;1.05;0.55;;;;;;;15.35;100.00;101878.72;10437430;28;20051;-80
2023/06/16 04:29:09;;;;;;;0.30;0.30;;;;;;;15.59;100.00;101874.91;10449516;28;20491;-79
2023/06/16 04:34:14;;;;;;;0.00;0.00;;;;;;;16.07;100.00;101868.94;10454682;28;20140;-79
2023/06/16 04:39:17;;;;;;;0.45;0.30;;;;;;;16.42;100.00;101870.41;10455405;28;20159;-80
2023/06/16 04:44:21;;;;;;;0.32;0.10;;;;;;;16.80;100.00;101868.44;10436677;28;20056;-80
2023/06/16 04:49:23;;;;;;;0.63;0.47;;;;;;;17.19;100.00;101871.66;10450684;28;20036;-80
2023/06/16 04:54:25;;;;;;;0.73;0.20;;;;;;;17.39;100.00;101863.22;10463325;28;20515;-80
2023/06/16 04:59:31;;;;;;;0.00;0.00;;;;;;;17.69;100.00;101867.06;10444637;28;20372;-80
2023/06/16 05:04:33;;;;;;;0.60;0.30;;;;;;;18.20;100.00;101854.63;10451816;28;20514;-80
2023/06/16 05:09:35;;;;;;;0.17;0.10;;;;;;;18.36;100.00;101846.03;10429287;28;20436;-80
2023/06/16 05:14:36;;;;;;;0.00;0.00;;;;;;;18.68;100.00;101841.97;10464893;28;20041;-80
2023/06/16 05:19:42;;;;;;;0.13;0.13;;;;;;;18.87;100.00;101845.56;10451696;28;20060;-80
2023/06/16 05:24:44;;;;;;;0.00;0.00;;;;;;;19.02;100.00;101847.41;10453352;28;20052;-80
2023/06/16 05:29:45;;;;;;;0.43;0.43;;;;;;;19.24;100.00;101852.75;10433623;28;20037;-80
2023/06/16 05:34:50;;;;;;;2.00;0.47;;;;;;;19.61;100.00;101843.34;10438901;28;20072;-80
2023/06/16 05:39:53;;;;;;;1.17;0.35;;;;;;;19.75;100.00;101850.34;10440567;28;20047;-80
2023/06/16 05:44:55;;;;;;;0.93;0.20;;;;;;;19.77;100.00;101859.94;10460649;28;20400;-80
2023/06/16 05:49:59;;;;;;;1.10;0.52;;;;;;;20.06;100.00;101858.31;10457905;28;20045;-81
2023/06/16 05:55:02;;;;;;;0.20;0.10;;;;;;;20.44;100.00;101847.84;10420104;28;20049;-81
2023/06/16 06:00:26;;;;;;;0.30;0.22;;;;;;;20.55;100.00;101860.94;10451704;28;20122;-80
2023/06/16 06:05:36;;;;;;;;;;;;;;;21.21;100.00;101867.84;10433318;28;20045;-81
2023/06/16 06:10:38;;;;;;;0.03;0.03;;;;;;;21.59;100.00;101872.97;10446428;28;19929;-81
2023/06/16 06:15:42;;;;;;;0.08;0.08;;;;;;;21.56;100.00;101869.44;10460421;28;20530;-80
2023/06/16 06:20:46;;;;;;;0.20;0.20;;;;;;;21.66;100.00;101874.69;10435729;28;20394;-81
2023/06/16 06:25:48;;;;;;;3.30;0.95;;;;;;;21.78;100.00;101879.84;10443091;28;20041;-82
2023/06/16 06:30:54;;;;;;;0.32;0.30;;;;;;;22.10;99.96;101881.41;10434854;28;20052;-82
2023/06/16 06:35:57;;;;;;;0.25;0.25;;;;;;;22.68;98.65;101887.13;10443627;28;20463;-82
2023/06/16 06:41:00;;;;;;;0.10;0.10;;;;;;;22.73;100.00;101885.34;10441625;28;20090;-82
2023/06/16 06:46:02;;;;;;;0.38;0.38;;;;;;;22.81;96.21;101901.00;10425718;28;20061;-81
2023/06/16 06:51:08;;;;;;;0.05;0.05;;;;;;;23.35;94.04;101881.22;10434342;28;20073;-81
2023/06/16 06:56:10;;;;;;;0.20;0.17;;;;;;;23.13;85.28;101897.19;10459762;28;20044;-81
2023/06/16 07:01:12;;;;;;;0.10;0.10;;;;;;;23.68;84.26;101895.69;10443057;28;20508;-81
2023/06/16 07:06:14;;;;;;;0.17;0.10;;;;;;;24.38;79.01;101892.97;10461099;28;20504;-82
2023/06/16 07:11:15;;;;;;;0.30;0.20;;;;;;;24.89;75.58;101890.34;10446826;28;20053;-82
2023/06/16 07:16:17;;;;;;;0.10;0.05;;;;;;;25.24;72.02;101891.47;10433816;28;20139;-82
2023/06/16 07:21:19;;;;;;;0.82;0.28;;;;;;;25.53;72.90;101890.03;10440510;28;20565;-81
2023/06/16 07:26:20;;;;;;;0.32;0.10;;;;;;;25.34;67.41;101895.63;10464392;28;20045;-82
2023/06/16 07:31:22;;;;;;;0.32;0.30;;;;;;;26.10;68.55;101888.78;10433784;28;20053;-81
2023/06/16 07:36:24;;;;;;;0.10;0.10;;;;;;;25.55;62.44;101894.34;10452935;28;20041;-82
2023/06/16 07:41:25;;;;;;;0.10;0.10;;;;;;;26.76;76.12;101899.50;10432877;28;20099;-82
2023/06/16 07:46:27;;;;;;;0.00;0.00;;;;;;;26.45;61.68;101897.59;10416689;28;20053;-83
2023/06/16 07:51:29;;;;;;;0.00;0.00;;;;;;;26.72;61.16;101889.88;10430707;28;20037;-81
2023/06/16 07:56:31;;;;;;;0.10;0.10;;;;;;;26.81;65.30;101892.31;10444497;28;20048;-82
2023/06/16 08:01:33;;;;;;;0.00;0.00;;;;;;;27.23;64.61;101886.72;10430810;28;20217;-82
2023/06/16 08:06:35;;;;;;;0.17;0.13;;;;;;;26.97;62.27;101879.53;10414719;28;20083;-82
2023/06/16 08:11:37;;;;;;;0.15;0.15;;;;;;;26.49;60.62;101877.25;10430388;28;20059;-81
2023/06/16 08:16:38;;;;;;;0.10;0.10;;;;;;;27.17;60.03;101881.63;10448099;28;20047;-83
2023/06/16 08:21:40;;;;;;;0.47;0.15;;;;;;;28.33;59.26;101879.91;10426999;28;20132;-82
2023/06/16 08:26:44;;;;;;;0.45;0.28;;;;;;;28.16;55.96;101877.78;10463328;28;20057;-82
2023/06/16 08:31:46;;;;;;;0.03;0.03;;;;;;;28.74;60.41;101869.69;10443633;28;20633;-82
2023/06/16 08:36:48;;;;;;;0.43;0.15;;;;;;;28.00;62.61;101866.81;10445841;28;20450;-82
2023/06/16 08:41:50;;;;;;;0.30;0.30;;;;;;;29.21;58.25;101857.38;10429104;28;20049;-82
2023/06/16 08:46:52;;;;;;;0.30;0.10;;;;;;;28.72;53.91;101860.06;10451963;28;20051;-82
2023/06/16 08:51:56;;;;;;;0.43;0.30;;;;;;;29.48;56.10;101859.94;10431286;28;20051;-81
2023/06/16 08:57:01;;;;;;;0.00;0.00;;;;;;;29.15;50.82;101862.94;10426823;28;20137;-82
2023/06/16 09:02:04;;;;;;;0.20;0.20;;;;;;;29.62;50.82;101852.28;10428195;28;20052;-82
2023/06/16 09:07:06;;;;;;;0.08;0.08;;;;;;;29.87;48.18;101851.31;10451739;28;20053;-82
2023/06/16 09:12:10;;;;;;;0.13;0.13;;;;;;;29.83;48.89;101855.00;10445472;28;20470;-82
2023/06/16 09:17:12;;;;;;;0.30;0.30;;;;;;;29.64;48.50;101863.72;10428073;28;20416;-82
2023/06/16 09:22:22;;;;;;;0.28;0.10;;;;;;;29.28;45.88;101853.59;10443713;28;20143;-81
2023/06/16 09:27:44;;;;;;;0.10;0.10;;;;;;;29.61;47.89;101861.19;10442872;28;20070;-82
2023/06/16 09:32:50;;;;;;;0.10;0.10;;;;;;;29.59;48.68;101853.28;10459220;28;20107;-82
2023/06/16 09:37:57;;;;;;;0.10;0.10;;;;;;;30.00;50.27;101855.22;10442072;28;20128;-81
2023/06/16 09:43:00;;;;;;;0.52;0.52;;;;;;;29.21;48.07;101849.44;10443091;28;20051;-83
2023/06/16 09:48:08;;;;;;;0.32;0.20;;;;;;;30.29;44.77;101836.34;10444742;28;20129;-82
2023/06/16 09:53:10;;;;;;;0.00;0.00;;;;;;;30.44;44.84;101832.13;10432643;28;20061;-81
2023/06/16 09:58:12;;;;;;;0.30;0.30;;;;;;;30.88;46.30;101829.31;10447594;28;20470;-82
2023/06/16 10:03:14;;;;;;;0.43;0.35;;;;;;;29.90;45.57;101836.13;10434619;28;20060;-82
2023/06/16 10:08:17;;;;;;;1.88;0.22;;;;;;;30.37;44.86;101824.44;10472657;28;20059;-82
2023/06/16 10:13:21;;;;;;;0.80;0.52;;;;;;;30.41;42.37;101832.28;10436663;28;20049;-82
2023/06/16 10:18:25;;;;;;;0.52;0.47;;;;;;;30.29;43.61;101825.72;10454569;28;20076;-82
2023/06/16 10:23:26;;;;;;;0.17;0.10;;;;;;;30.33;47.83;101816.66;10426834;28;20144;-81
2023/06/16 10:28:29;;;;;;;0.30;0.30;;;;;;;31.29;43.78;101821.28;10450512;28;20041;-82
2023/06/16 10:33:54;;;;;;;0.25;0.25;;;;;;;30.52;42.42;101822.06;10442158;28;20052;-81
2023/06/16 10:39:01;;;;;;;0.45;0.25;;;;;;;30.50;43.63;101810.59;10441953;28;20071;-82
2023/06/16 10:44:21;;;;;;;0.28;0.28;;;;;;;30.41;44.52;101811.03;10437668;28;20084;-83
2023/06/16 10:49:26;;;;;;;0.75;0.30;;;;;;;31.31;50.88;101810.53;10441657;28;20072;-82
2023/06/16 10:54:35;;;;;;;0.45;0.45;;;;;;;31.56;44.68;101799.56;10424550;28;20135;-81
2023/06/16 10:59:52;;;;;;;0.13;0.13;;;;;;;31.67;47.50;101792.88;10469979;28;20059;-82
2023/06/16 11:05:07;;;;;;;0.03;0.03;;;;;;;31.07;47.34;101801.88;10464703;28;20511;-83
2023/06/16 11:10:11;;;;;;;0.47;0.30;;;;;;;31.74;37.54;101781.00;10459304;28;20121;-82
2023/06/16 11:15:13;;;;;;;0.10;0.10;;;;;;;31.24;42.33;101793.97;10427465;28;20507;-81
2023/06/16 11:20:15;;;;;;;1.00;0.20;;;;;;;31.76;46.89;101785.31;10453135;28;20042;-83
2023/06/16 11:25:17;;;;;;;0.30;0.15;;;;;;;31.30;39.85;101787.50;10470136;28;20059;-82
2023/06/16 11:30:20;;;;;;;0.45;0.10;;;;;;;30.76;40.83;101785.53;10434751;28;20036;-82
2023/06/16 11:35:32;;;;;;;0.30;0.30;;;;;;;31.04;37.23;101786.94;10427769;28;20050;-80
2023/06/16 11:40:35;;;;;;;0.10;0.03;;;;;;;31.25;37.74;101785.06;10451654;28;20049;-82
2023/06/16 11:45:37;;;;;;;0.00;0.00;;;;;;;31.88;37.43;101775.81;10439368;28;20041;-83
2023/06/16 11:50:39;;;;;;;0.20;0.10;;;;;;;31.23;36.34;101778.97;10442682;28;20033;-81
2023/06/16 11:55:47;;;;;;;0.40;0.35;;;;;;;31.86;35.66;101764.38;10449514;28;20124;-82
2023/06/16 12:00:50;;;;;;;0.30;0.20;;;;;;;31.99;37.95;101764.63;10464778;28;20048;-82
2023/06/16 12:05:53;;;;;;;0.20;0.20;;;;;;;31.31;35.53;101762.63;10473628;28;20040;-80
2023/06/16 12:10:55;;;;;;;0.10;0.10;;;;;;;31.69;35.93;101767.91;10437979;28;20052;-82
2023/06/16 12:15:57;;;;;;;0.00;0.00;;;;;;;31.83;37.32;101759.22;10453440;28;20088;-81
2023/06/16 12:21:20;;;;;;;0.10;0.10;;;;;;;31.14;32.48;101771.41;10451468;28;20113;-81
2023/06/16 12:26:34;;;;;;;0.30;0.08;;;;;;;31.78;38.51;101750.59;10419557;28;20416;-82
2023/06/16 12:31:35;;;;;;;1.73;0.20;;;;;;;31.44;35.01;101753.09;10435619;28;20123;-83
2023/06/16 12:36:39;;;;;;;0.28;0.20;;;;;;;31.12;34.46;101747.56;10432372;28;20529;-82
2023/06/16 12:41:54;;;;;;;0.10;0.10;;;;;;;32.01;33.00;101752.09;10427701;28;20036;-82
2023/06/16 12:46:56;;;;;;;0.00;0.00;;;;;;;31.18;35.58;101751.69;10459300;28;20064;-82
2023/06/16 12:51:57;;;;;;;0.10;0.10;;;;;;;31.33;38.76;101740.31;10442102;28;20151;-82
2023/06/16 12:57:00;;;;;;;0.30;0.30;;;;;;;31.49;39.66;101739.56;10444095;28;20064;-82
2023/06/16 13:02:01;;;;;;;0.82;0.50;;;;;;;31.14;33.20;101742.16;10451937;28;20045;-81
2023/06/16 13:07:04;;;;;;;0.13;0.10;;;;;;;30.82;34.31;101745.38;10437067;28;20496;-83
2023/06/16 13:12:09;;;;;;;0.10;0.10;;;;;;;30.52;34.75;101743.19;10439695;28;20048;-82
2023/06/16 13:17:11;;;;;;;0.20;0.15;;;;;;;30.92;34.94;101731.63;10440548;28;20492;-82
2023/06/16 13:22:12;;;;;;;0.88;0.30;;;;;;;30.67;33.71;101725.66;10426245;28;20412;-82
2023/06/16 13:27:14;;;;;;;0.03;0.00;;;;;;;30.69;35.69;101725.56;10421711;28;20144;-80
2023/06/16 13:32:16;;;;;;;0.40;0.30;;;;;;;30.53;34.59;101722.75;10412758;28;20053;-82
2023/06/16 13:37:17;;;;;;;0.10;0.10;;;;;;;30.95;35.24;101719.03;10443530;28;20053;-82
2023/06/16 13:42:20;;;;;;;0.52;0.32;;;;;;;30.53;33.99;101723.63;10455627;28;20499;-82
2023/06/16 13:47:21;;;;;;;0.00;0.00;;;;;;;30.26;36.80;101715.09;10449657;28;20412;-82
2023/06/16 13:52:24;;;;;;;0.85;0.28;;;;;;;31.00;37.58;101705.50;10436926;28;20053;-82
2023/06/16 13:57:26;;;;;;;0.28;0.10;;;;;;;30.83;37.45;101693.03;10444255;28;20040;-83
2023/06/16 14:02:27;;;;;;;0.52;0.22;;;;;;;30.46;40.10;101684.06;10434154;28;20053;-81
2023/06/16 14:07:32;;;;;;;1.25;0.57;;;;;;;31.15;39.26;101688.00;10442780;28;20045;-83
2023/06/16 14:12:33;;;;;;;0.10;0.10;;;;;;;30.15;36.30;101691.66;10442506;28;20144;-80
2023/06/16 14:17:36;;;;;;;0.10;0.10;;;;;;;30.00;36.67;101687.84;10425347;28;20060;-82
2023/06/16 14:22:38;;;;;;;0.20;0.20;;;;;;;30.30;37.62;101687.41;10425495;28;20530;-83
2023/06/16 14:27:40;;;;;;;0.52;0.40;;;;;;;29.20;35.96;101683.19;10426475;28;20048;-82
2023/06/16 14:32:42;;;;;;;0.52;0.30;;;;;;;29.50;37.53;101681.09;10455284;28;20071;-81
2023/06/16 14:37:43;;;;;;;0.10;0.10;;;;;;;29.27;35.17;101679.34;10428609;28;20053;-81
2023/06/16 14:42:45;;;;;;;0.38;0.10;;;;;;;30.06;37.96;101679.59;10446274;28;20499;-83
2023/06/16 14:47:47;;;;;;;0.43;0.30;;;;;;;30.04;38.35;101676.19;10435582;28;20496;-82
2023/06/16 14:52:49;;;;;;;0.00;0.00;;;;;;;30.58;36.46;101667.56;10448599;28;20051;-81
2023/06/16 14:57:51;;;;;;;1.95;0.40;;;;;;;29.22;36.48;101674.22;10443797;28;20476;-82
2023/06/16 15:02:52;;;;;;;0.20;0.10;;;;;;;29.55;40.73;101670.28;10441920;28;20401;-81
2023/06/16 15:07:54;;;;;;;0.10;0.10;;;;;;;29.85;39.76;101667.25;10446841;28;20447;-80
2023/06/16 15:12:56;;;;;;;0.22;0.17;;;;;;;30.32;40.15;101666.97;10448270;28;20045;-82
2023/06/16 15:17:57;;;;;;;0.15;0.15;;;;;;;29.84;35.49;101665.50;10459421;28;20048;-81
2023/06/16 15:22:59;;;;;;;0.30;0.20;;;;;;;30.01;37.93;101657.72;10446866;28;20060;-82
2023/06/16 15:28:01;;;;;;;0.43;0.43;;;;;;;30.19;40.76;101650.69;10433744;28;20048;-83
2023/06/16 15:33:13;;;;;;;0.08;0.08;;;;;;;29.32;37.52;101652.66;10453903;28;20492;-81
2023/06/16 15:38:16;;;;;;;0.20;0.10;;;;;;;29.38;37.88;101655.91;10451155;28;20052;-81
2023/06/16 15:43:17;;;;;;;0.10;0.10;;;;;;;28.53;38.39;101663.66;10438715;28;20508;-82
2023/06/16 15:48:19;;;;;;;0.25;0.25;;;;;;;29.33;38.65;101649.09;10448700;28;20460;-80
2023/06/16 15:53:21;;;;;;;0.35;0.25;;;;;;;29.07;38.14;101649.22;10460311;28;20041;-82
2023/06/16 15:58:22;;;;;;;0.63;0.22;;;;;;;29.22;37.62;101644.19;10446203;28;20044;-81
2023/06/16 16:03:24;;;;;;;0.20;0.15;;;;;;;28.67;36.75;101645.44;10435074;28;20049;-81
2023/06/16 16:08:26;;;;;;;0.65;0.30;;;;;;;28.96;39.22;101641.69;10469220;28;20079;-81
2023/06/16 16:13:31;;;;;;;0.15;0.05;;;;;;;28.69;38.40;101648.94;10463214;28;20057;-83
2023/06/16 16:18:33;;;;;;;0.30;0.28;;;;;;;28.83;40.03;101639.56;10447185;28;20459;-81
2023/06/16 16:23:35;;;;;;;0.57;0.05;;;;;;;28.56;37.80;101637.03;10428320;28;20136;-83
2023/06/16 16:28:36;;;;;;;0.00;0.00;;;;;;;28.57;39.27;101628.16;10443915;28;20841;-83
2023/06/16 16:33:38;;;;;;;0.10;0.10;;;;;;;28.23;38.25;101634.72;10441818;28;20172;-81
2023/06/16 16:38:40;;;;;;;0.55;0.32;;;;;;;28.13;38.88;101632.41;10453698;28;20047;-81
2023/06/16 16:43:42;;;;;;;0.10;0.10;;;;;;;28.33;39.64;101641.44;10452396;28;20048;-80
2023/06/16 16:48:44;;;;;;;0.00;0.00;;;;;;;28.53;40.95;101631.84;10449076;28;20083;-83
2023/06/16 16:53:46;;;;;;;0.10;0.10;;;;;;;28.44;39.50;101633.94;10469727;28;20072;-81
2023/06/16 16:58:47;;;;;;;0.13;0.08;;;;;;;28.39;39.74;101633.25;10430327;28;20052;-81
2023/06/16 17:03:49;;;;;;;0.45;0.38;;;;;;;28.53;39.40;101630.06;10443211;28;20655;-81
2023/06/16 17:08:51;;;;;;;0.00;0.00;;;;;;;28.20;40.37;101634.84;10443236;28;20048;-82
2023/06/16 17:13:53;;;;;;;0.10;0.00;;;;;;;28.35;41.07;101634.25;10476255;28;20512;-83
2023/06/16 17:18:55;;;;;;;0.20;0.13;;;;;;;27.84;40.57;101639.59;10450773;28;20400;-80
2023/06/16 17:23:57;;;;;;;0.10;0.10;;;;;;;28.18;41.94;101637.53;10455547;28;20052;-81
2023/06/16 17:28:59;;;;;;;0.20;0.20;;;;;;;28.14;41.90;101641.25;10440097;28;20053;-81
2023/06/16 17:34:01;;;;;;;0.00;0.00;;;;;;;27.86;41.60;101642.19;10452925;28;20515;-83
2023/06/16 17:39:03;;;;;;;0.15;0.10;;;;;;;27.97;40.66;101644.44;10430452;28;20053;-82
2023/06/16 17:44:05;;;;;;;0.10;0.10;;;;;;;27.38;39.83;101642.00;10450067;28;20118;-80
2023/06/16 17:49:07;;;;;;;0.08;0.08;;;;;;;27.87;40.59;101643.91;10433724;28;20397;-84
2023/06/16 17:54:09;;;;;;;0.90;0.15;;;;;;;27.36;42.35;101635.88;10430546;28;20419;-82
2023/06/16 17:59:10;;;;;;;0.30;0.30;;;;;;;27.27;42.63;101643.28;10467444;28;20044;-82
2023/06/16 18:04:12;;;;;;;0.00;0.00;;;;;;;27.06;43.57;101640.41;10465261;28;20487;-82
2023/06/16 18:09:13;;;;;;;0.10;0.08;;;;;;;26.69;44.49;101636.22;10444769;28;20045;-80
2023/06/16 18:14:15;;;;;;;0.00;0.00;;;;;;;26.64;42.74;101644.28;10456186;28;20076;-81
2023/06/16 18:19:17;;;;;;;0.00;0.00;;;;;;;26.43;42.96;101640.50;10456409;28;20106;-82
2023/06/16 18:24:19;;;;;;;0.10;0.00;;;;;;;26.27;43.02;101643.59;10453773;28;20053;-81
2023/06/16 18:29:23;;;;;;;0.00;0.00;;;;;;;26.20;44.75;101649.94;10458182;28;20077;-81
2023/06/16 18:34:26;;;;;;;0.00;0.00;;;;;;;26.16;45.53;101653.59;10467156;28;20056;-81
2023/06/16 18:39:33;;;;;;;0.00;0.00;;;;;;;25.79;43.76;101650.13;10451284;28;20508;-82
2023/06/16 18:44:35;;;;;;;0.10;0.00;;;;;;;25.87;43.41;101652.59;10455374;28;20060;-82
2023/06/16 18:49:36;;;;;;;0.82;0.20;;;;;;;25.63;44.93;101654.94;10459774;28;20722;-83
2023/06/16 18:54:39;;;;;;;0.00;0.00;;;;;;;25.49;44.93;101657.06;10440974;28;20049;-82
2023/06/16 18:59:47;;;;;;;0.40;0.20;;;;;;;25.25;46.01;101648.81;10471933;28;20045;-82
2023/06/16 19:04:48;;;;;;;0.00;0.00;;;;;;;25.29;46.67;101652.25;10451202;28;20196;-82
2023/06/16 19:09:50;;;;;;;0.35;0.20;;;;;;;25.15;49.18;101655.19;10419166;28;20051;-82
2023/06/16 19:14:53;;;;;;;0.00;0.00;;;;;;;25.06;49.68;101653.66;10456761;28;20056;-82
2023/06/16 19:19:55;;;;;;;0.10;0.10;;;;;;;24.61;52.14;101659.84;10456288;28;20040;-82
2023/06/16 19:24:56;;;;;;;0.00;0.00;;;;;;;24.57;51.59;101663.44;10464757;28;20059;-82
2023/06/16 19:29:58;;;;;;;0.00;0.00;;;;;;;24.37;53.47;101675.28;10455045;28;20045;-82
2023/06/16 19:35:00;;;;;;;0.20;0.20;;;;;;;24.04;55.57;101669.75;10446604;28;20080;-82
2023/06/16 19:40:06;;;;;;;0.00;0.00;;;;;;;23.88;56.87;101676.13;10452872;28;20488;-81
2023/06/16 19:45:08;;;;;;;0.00;0.00;;;;;;;23.93;62.12;101674.34;10434022;28;20044;-81
2023/06/16 19:50:10;;;;;;;0.47;0.30;;;;;;;23.95;60.08;101680.41;10464831;28;20045;-81
2023/06/16 19:55:13;;;;;;;0.20;0.17;;;;;;;24.25;56.52;101686.03;10451636;28;20052;-82
2023/06/16 20:00:15;;;;;;;0.85;0.20;;;;;;;23.96;57.11;101692.69;10467361;28;20126;-81
2023/06/16 20:05:21;;;;;;;0.00;0.00;;;;;;;23.72;61.42;101696.59;10468726;28;20136;-81
2023/06/16 20:10:24;;;;;;;0.20;0.10;;;;;;;23.40;60.71;101690.94;10456273;28;20102;-81
2023/06/16 20:15:26;;;;;;;0.00;0.00;;;;;;;23.61;60.53;101699.38;10456365;28;20492;-81
2023/06/16 20:20:28;;;;;;;0.00;0.00;;;;;;;23.68;58.94;101701.03;10449820;28;20071;-82
2023/06/16 20:25:30;;;;;;;0.10;0.10;;;;;;;23.27;61.02;101708.66;10404774;28;20088;-82
2023/06/16 20:30:31;;;;;;;0.98;0.85;;;;;;;23.45;58.88;101704.88;10450525;28;20518;-82
2023/06/16 20:35:33;;;;;;;0.32;0.05;;;;;;;23.14;65.24;101710.56;10469559;28;20053;-81
2023/06/16 20:40:35;;;;;;;0.40;0.17;;;;;;;22.80;62.73;101700.50;10445945;28;20053;-82
2023/06/16 20:45:37;;;;;;;0.13;0.03;;;;;;;22.86;60.34;101703.94;10430821;28;20088;-82
2023/06/16 20:50:38;;;;;;;0.13;0.10;;;;;;;22.52;60.73;101704.34;10449645;28;20034;-82
2023/06/16 20:55:41;;;;;;;0.10;0.10;;;;;;;21.82;61.62;101705.84;10437090;28;20045;-82
2023/06/16 21:00:42;;;;;;;0.10;0.10;;;;;;;21.78;67.59;101705.88;10432827;28;20049;-82
2023/06/16 21:05:46;;;;;;;0.30;0.00;;;;;;;21.28;72.46;101697.47;10466523;28;20132;-82
2023/06/16 21:10:48;;;;;;;0.10;0.00;;;;;;;21.77;65.68;101693.66;10455114;28;20060;-82
2023/06/16 21:15:49;;;;;;;0.32;0.10;;;;;;;21.74;66.73;101681.44;10470395;28;20049;-81
2023/06/16 21:20:51;;;;;;;0.00;0.00;;;;;;;21.83;64.92;101677.84;10417854;28;20400;-82
2023/06/16 21:25:53;;;;;;;0.00;0.00;;;;;;;21.91;62.44;101681.28;10443591;28;20041;-81
2023/06/16 21:30:54;;;;;;;0.30;0.10;;;;;;;21.82;62.49;101677.00;10438009;28;20136;-82
2023/06/16 21:35:57;;;;;;;0.00;0.00;;;;;;;21.36;65.85;101678.22;10428383;28;20053;-82
2023/06/16 21:40:59;;;;;;;0.30;0.20;;;;;;;20.88;71.53;101690.69;10427628;28;20033;-81
2023/06/16 21:46:00;;;;;;;0.08;0.08;;;;;;;20.73;72.82;101686.41;10433678;28;20057;-82
2023/06/16 21:51:02;;;;;;;0.00;0.00;;;;;;;20.17;72.66;101683.88;10456184;28;20136;-81
2023/06/16 21:56:04;;;;;;;0.00;0.00;;;;;;;19.89;82.97;101680.44;10457696;28;20049;-81
2023/06/16 22:01:06;;;;;;;0.00;0.00;;;;;;;19.49;76.33;101671.69;10474288;28;20040;-81
2023/06/16 22:06:09;;;;;;;0.00;0.00;;;;;;;19.47;78.64;101678.66;10449559;28;20178;-81
2023/06/16 22:11:12;;;;;;;0.00;0.00;;;;;;;19.43;77.01;101681.25;10454286;28;20504;-81
2023/06/16 22:16:14;;;;;;;0.00;0.00;;;;;;;18.98;82.44;101668.09;10465986;28;20045;-81
2023/06/16 22:21:16;;;;;;;0.17;0.10;;;;;;;18.76;86.45;101664.50;10436469;28;20065;-81
2023/06/16 22:26:19;;;;;;;0.10;0.10;;;;;;;18.63;89.25;101660.94;10450301;28;20143;-80
2023/06/16 22:31:21;;;;;;;0.98;0.45;;;;;;;18.84;92.43;101666.25;10430511;28;20045;-81
2023/06/16 22:36:23;;;;;;;0.00;0.00;;;;;;;18.90;91.10;101664.56;10425996;28;20056;-81
2023/06/16 22:41:25;;;;;;;0.10;0.05;;;;;;;18.99;90.28;101659.38;10435418;28;20511;-81
2023/06/16 22:46:27;;;;;;;0.32;0.32;;;;;;;18.96;95.88;101667.22;10449727;28;20051;-81
2023/06/16 22:51:29;;;;;;;0.00;0.00;;;;;;;18.79;97.61;101662.75;10436125;28;20500;-81
2023/06/16 22:56:30;;;;;;;0.15;0.10;;;;;;;18.16;100.00;101675.47;10429879;28;20059;-80
2023/06/16 23:01:32;;;;;;;0.10;0.10;;;;;;;18.08;99.07;101673.69;10449294;28;20052;-81
2023/06/16 23:06:35;;;;;;;0.10;0.10;;;;;;;17.99;100.00;101672.75;10458278;28;20131;-81